sensor_id;sensor_type;location;lat;lon;timestamp;temperature;humidity
55135;DHT22;41031;44.750;11.308;2024-03-25T00:02:07;9.90;89.40
55135;DHT22;41031;44.750;11.308;2024-03-25T00:04:33;9.90;89.70
55135;DHT22;41031;44.750;11.308;2024-03-25T00:11:14;9.70;88.80
55135;DHT22;41031;44.750;11.308;2024-03-25T00:14:48;9.50;89.40
55135;DHT22;41031;44.750;11.308;2024-03-25T00:17:14;9.40;89.80
55135;DHT22;41031;44.750;11.308;2024-03-25T00:19:40;9.30;90.00
55135;DHT22;41031;44.750;11.308;2024-03-25T00:22:08;9.20;90.00
55135;DHT22;41031;44.750;11.308;2024-03-25T00:24:35;9.10;90.10
55135;DHT22;41031;44.750;11.308;2024-03-25T00:27:01;9.10;90.20
55135;DHT22;41031;44.750;11.308;2024-03-25T00:29:28;9.00;90.30
55135;DHT22;41031;44.750;11.308;2024-03-25T00:31:54;9.00;90.50
55135;DHT22;41031;44.750;11.308;2024-03-25T00:34:21;9.00;90.60
55135;DHT22;41031;44.750;11.308;2024-03-25T00:36:47;9.00;90.60
55135;DHT22;41031;44.750;11.308;2024-03-25T00:39:14;9.00;90.70
55135;DHT22;41031;44.750;11.308;2024-03-25T00:41:41;9.00;90.80
55135;DHT22;41031;44.750;11.308;2024-03-25T00:44:07;9.00;90.80
55135;DHT22;41031;44.750;11.308;2024-03-25T00:46:33;9.00;90.80
55135;DHT22;41031;44.750;11.308;2024-03-25T00:49:00;9.00;90.90
55135;DHT22;41031;44.750;11.308;2024-03-25T00:51:26;8.90;91.00
55135;DHT22;41031;44.750;11.308;2024-03-25T00:53:52;8.90;91.30
55135;DHT22;41031;44.750;11.308;2024-03-25T00:56:18;9.00;91.00
55135;DHT22;41031;44.750;11.308;2024-03-25T00:58:45;8.90;91.10
55135;DHT22;41031;44.750;11.308;2024-03-25T01:01:12;8.90;91.10
55135;DHT22;41031;44.750;11.308;2024-03-25T01:03:38;8.90;91.10
55135;DHT22;41031;44.750;11.308;2024-03-25T01:06:05;8.90;91.10
55135;DHT22;41031;44.750;11.308;2024-03-25T01:08:31;8.90;91.20
55135;DHT22;41031;44.750;11.308;2024-03-25T01:10:58;8.90;91.20
55135;DHT22;41031;44.750;11.308;2024-03-25T01:13:24;8.90;91.20
55135;DHT22;41031;44.750;11.308;2024-03-25T01:15:50;8.80;91.10
55135;DHT22;41031;44.750;11.308;2024-03-25T01:18:16;8.80;91.10
55135;DHT22;41031;44.750;11.308;2024-03-25T01:20:42;8.70;91.20
55135;DHT22;41031;44.750;11.308;2024-03-25T01:23:08;8.70;91.30
55135;DHT22;41031;44.750;11.308;2024-03-25T01:25:35;8.70;91.30
55135;DHT22;41031;44.750;11.308;2024-03-25T01:28:01;8.70;91.40
55135;DHT22;41031;44.750;11.308;2024-03-25T01:30:27;8.60;91.40
55135;DHT22;41031;44.750;11.308;2024-03-25T01:32:54;8.60;91.30
55135;DHT22;41031;44.750;11.308;2024-03-25T01:35:21;8.60;91.30
55135;DHT22;41031;44.750;11.308;2024-03-25T01:37:47;8.60;91.30
55135;DHT22;41031;44.750;11.308;2024-03-25T01:40:15;8.60;91.40
55135;DHT22;41031;44.750;11.308;2024-03-25T01:42:41;8.50;91.30
55135;DHT22;41031;44.750;11.308;2024-03-25T01:45:08;8.50;91.40
55135;DHT22;41031;44.750;11.308;2024-03-25T01:47:36;8.50;91.40
55135;DHT22;41031;44.750;11.308;2024-03-25T01:50:04;8.40;91.50
55135;DHT22;41031;44.750;11.308;2024-03-25T01:52:32;8.40;91.60
55135;DHT22;41031;44.750;11.308;2024-03-25T01:54:59;8.40;91.70
55135;DHT22;41031;44.750;11.308;2024-03-25T01:57:26;8.40;91.70
55135;DHT22;41031;44.750;11.308;2024-03-25T01:59:53;8.40;91.70
55135;DHT22;41031;44.750;11.308;2024-03-25T02:02:22;8.40;91.70
55135;DHT22;41031;44.750;11.308;2024-03-25T02:04:49;8.40;91.70
55135;DHT22;41031;44.750;11.308;2024-03-25T02:07:16;8.40;91.70
55135;DHT22;41031;44.750;11.308;2024-03-25T02:09:43;8.40;91.70
55135;DHT22;41031;44.750;11.308;2024-03-25T02:12:10;8.30;91.70
55135;DHT22;41031;44.750;11.308;2024-03-25T02:14:58;8.30;91.70
55135;DHT22;41031;44.750;11.308;2024-03-25T02:18:20;8.30;91.80
55135;DHT22;41031;44.750;11.308;2024-03-25T02:21:46;8.30;91.90
55135;DHT22;41031;44.750;11.308;2024-03-25T02:24:53;8.30;91.70
55135;DHT22;41031;44.750;11.308;2024-03-25T02:27:39;8.20;91.70
55135;DHT22;41031;44.750;11.308;2024-03-25T02:30:22;8.20;91.70
55135;DHT22;41031;44.750;11.308;2024-03-25T02:33:03;8.20;91.90
55135;DHT22;41031;44.750;11.308;2024-03-25T02:36:05;8.10;92.00
55135;DHT22;41031;44.750;11.308;2024-03-25T02:38:47;8.10;92.20
55135;DHT22;41031;44.750;11.308;2024-03-25T02:41:13;8.10;92.30
55135;DHT22;41031;44.750;11.308;2024-03-25T02:43:39;8.10;92.40
55135;DHT22;41031;44.750;11.308;2024-03-25T02:46:05;8.10;92.30
55135;DHT22;41031;44.750;11.308;2024-03-25T02:48:32;8.10;92.20
55135;DHT22;41031;44.750;11.308;2024-03-25T02:50:58;8.00;92.20
55135;DHT22;41031;44.750;11.308;2024-03-25T02:53:24;8.00;92.30
55135;DHT22;41031;44.750;11.308;2024-03-25T02:55:50;8.00;92.40
55135;DHT22;41031;44.750;11.308;2024-03-25T02:58:17;7.90;92.40
55135;DHT22;41031;44.750;11.308;2024-03-25T03:00:43;7.90;92.40
55135;DHT22;41031;44.750;11.308;2024-03-25T03:03:09;7.90;92.30
55135;DHT22;41031;44.750;11.308;2024-03-25T03:05:35;7.90;92.30
55135;DHT22;41031;44.750;11.308;2024-03-25T03:08:01;7.80;92.20
55135;DHT22;41031;44.750;11.308;2024-03-25T03:10:27;7.70;92.30
55135;DHT22;41031;44.750;11.308;2024-03-25T03:12:54;7.70;92.50
55135;DHT22;41031;44.750;11.308;2024-03-25T03:15:20;7.60;92.60
55135;DHT22;41031;44.750;11.308;2024-03-25T03:17:46;7.60;92.50
55135;DHT22;41031;44.750;11.308;2024-03-25T03:20:12;7.60;92.40
55135;DHT22;41031;44.750;11.308;2024-03-25T03:22:39;7.50;92.30
55135;DHT22;41031;44.750;11.308;2024-03-25T03:25:05;7.50;92.30
55135;DHT22;41031;44.750;11.308;2024-03-25T03:27:31;7.50;92.50
55135;DHT22;41031;44.750;11.308;2024-03-25T03:29:58;7.50;92.50
55135;DHT22;41031;44.750;11.308;2024-03-25T03:32:24;7.50;92.60
55135;DHT22;41031;44.750;11.308;2024-03-25T03:34:55;7.50;92.60
55135;DHT22;41031;44.750;11.308;2024-03-25T03:37:21;7.50;92.70
55135;DHT22;41031;44.750;11.308;2024-03-25T03:39:48;7.50;92.50
55135;DHT22;41031;44.750;11.308;2024-03-25T03:42:14;7.40;92.30
55135;DHT22;41031;44.750;11.308;2024-03-25T03:44:41;7.30;92.30
55135;DHT22;41031;44.750;11.308;2024-03-25T03:47:07;7.30;92.40
55135;DHT22;41031;44.750;11.308;2024-03-25T03:49:33;7.20;92.40
55135;DHT22;41031;44.750;11.308;2024-03-25T03:51:59;7.20;92.50
55135;DHT22;41031;44.750;11.308;2024-03-25T03:54:25;7.10;92.60
55135;DHT22;41031;44.750;11.308;2024-03-25T03:56:51;7.10;92.50
55135;DHT22;41031;44.750;11.308;2024-03-25T03:59:17;7.00;92.50
55135;DHT22;41031;44.750;11.308;2024-03-25T04:01:44;7.00;92.70
55135;DHT22;41031;44.750;11.308;2024-03-25T04:04:11;7.00;92.90
55135;DHT22;41031;44.750;11.308;2024-03-25T04:06:37;7.00;92.90
55135;DHT22;41031;44.750;11.308;2024-03-25T04:09:07;6.90;93.00
55135;DHT22;41031;44.750;11.308;2024-03-25T04:11:36;6.90;93.10
55135;DHT22;41031;44.750;11.308;2024-03-25T04:14:02;6.90;93.20
55135;DHT22;41031;44.750;11.308;2024-03-25T04:16:28;6.90;93.20
55135;DHT22;41031;44.750;11.308;2024-03-25T04:18:57;6.90;93.30
55135;DHT22;41031;44.750;11.308;2024-03-25T04:21:24;6.90;93.20
55135;DHT22;41031;44.750;11.308;2024-03-25T04:23:50;6.90;93.20
55135;DHT22;41031;44.750;11.308;2024-03-25T04:26:16;6.80;93.20
55135;DHT22;41031;44.750;11.308;2024-03-25T04:28:42;6.90;93.20
55135;DHT22;41031;44.750;11.308;2024-03-25T04:31:09;6.90;93.20
55135;DHT22;41031;44.750;11.308;2024-03-25T04:33:35;6.90;93.20
55135;DHT22;41031;44.750;11.308;2024-03-25T04:36:01;6.90;93.20
55135;DHT22;41031;44.750;11.308;2024-03-25T04:38:27;6.90;93.10
55135;DHT22;41031;44.750;11.308;2024-03-25T04:40:56;6.90;93.10
55135;DHT22;41031;44.750;11.308;2024-03-25T04:43:22;6.90;93.10
55135;DHT22;41031;44.750;11.308;2024-03-25T04:45:48;6.80;93.10
55135;DHT22;41031;44.750;11.308;2024-03-25T04:48:15;6.80;93.10
55135;DHT22;41031;44.750;11.308;2024-03-25T04:50:41;6.80;93.10
55135;DHT22;41031;44.750;11.308;2024-03-25T04:53:07;6.80;93.00
55135;DHT22;41031;44.750;11.308;2024-03-25T04:55:34;6.80;93.30
55135;DHT22;41031;44.750;11.308;2024-03-25T04:58:00;6.70;93.00
55135;DHT22;41031;44.750;11.308;2024-03-25T05:00:26;6.70;93.10
55135;DHT22;41031;44.750;11.308;2024-03-25T05:02:52;6.70;93.20
55135;DHT22;41031;44.750;11.308;2024-03-25T05:05:18;6.70;93.20
55135;DHT22;41031;44.750;11.308;2024-03-25T05:07:44;6.70;93.30
55135;DHT22;41031;44.750;11.308;2024-03-25T05:10:10;6.70;93.20
55135;DHT22;41031;44.750;11.308;2024-03-25T05:12:38;6.70;93.20
55135;DHT22;41031;44.750;11.308;2024-03-25T05:15:05;6.60;93.00
55135;DHT22;41031;44.750;11.308;2024-03-25T05:17:32;6.60;93.10
55135;DHT22;41031;44.750;11.308;2024-03-25T05:19:58;6.60;93.30
55135;DHT22;41031;44.750;11.308;2024-03-25T05:22:24;6.60;93.50
55135;DHT22;41031;44.750;11.308;2024-03-25T05:24:50;6.60;93.50
55135;DHT22;41031;44.750;11.308;2024-03-25T05:27:16;6.60;93.50
55135;DHT22;41031;44.750;11.308;2024-03-25T05:29:42;6.60;93.50
55135;DHT22;41031;44.750;11.308;2024-03-25T05:32:08;6.60;93.40
55135;DHT22;41031;44.750;11.308;2024-03-25T05:34:35;6.60;93.40
55135;DHT22;41031;44.750;11.308;2024-03-25T05:37:02;6.60;93.50
55135;DHT22;41031;44.750;11.308;2024-03-25T05:39:28;6.70;93.70
55135;DHT22;41031;44.750;11.308;2024-03-25T05:41:54;6.80;93.80
55135;DHT22;41031;44.750;11.308;2024-03-25T05:44:21;7.00;93.90
55135;DHT22;41031;44.750;11.308;2024-03-25T05:46:47;7.10;93.70
55135;DHT22;41031;44.750;11.308;2024-03-25T05:49:13;7.20;93.60
55135;DHT22;41031;44.750;11.308;2024-03-25T05:51:39;7.30;93.60
55135;DHT22;41031;44.750;11.308;2024-03-25T05:54:05;7.40;93.70
55135;DHT22;41031;44.750;11.308;2024-03-25T05:56:31;7.50;93.80
55135;DHT22;41031;44.750;11.308;2024-03-25T05:58:58;7.60;94.00
55135;DHT22;41031;44.750;11.308;2024-03-25T06:01:25;7.90;94.00
55135;DHT22;41031;44.750;11.308;2024-03-25T06:03:51;8.10;93.60
55135;DHT22;41031;44.750;11.308;2024-03-25T06:06:18;8.20;93.40
55135;DHT22;41031;44.750;11.308;2024-03-25T06:08:44;8.30;93.30
55135;DHT22;41031;44.750;11.308;2024-03-25T06:11:12;8.50;93.30
55135;DHT22;41031;44.750;11.308;2024-03-25T06:13:38;8.60;92.80
55135;DHT22;41031;44.750;11.308;2024-03-25T06:16:04;8.80;92.70
55135;DHT22;41031;44.750;11.308;2024-03-25T06:18:31;9.10;92.70
55135;DHT22;41031;44.750;11.308;2024-03-25T06:20:57;9.60;91.60
55135;DHT22;41031;44.750;11.308;2024-03-25T06:23:28;10.10;90.40
55135;DHT22;41031;44.750;11.308;2024-03-25T06:25:55;10.40;89.50
55135;DHT22;41031;44.750;11.308;2024-03-25T06:28:22;10.90;87.70
55135;DHT22;41031;44.750;11.308;2024-03-25T06:30:49;11.50;85.10
55135;DHT22;41031;44.750;11.308;2024-03-25T06:33:34;11.90;82.80
55135;DHT22;41031;44.750;11.308;2024-03-25T06:36:19;12.40;81.20
55135;DHT22;41031;44.750;11.308;2024-03-25T06:38:46;12.90;79.30
55135;DHT22;41031;44.750;11.308;2024-03-25T06:41:12;13.20;77.70
55135;DHT22;41031;44.750;11.308;2024-03-25T06:43:38;13.30;77.10
55135;DHT22;41031;44.750;11.308;2024-03-25T06:46:05;13.20;77.00
55135;DHT22;41031;44.750;11.308;2024-03-25T06:48:33;13.10;77.10
55135;DHT22;41031;44.750;11.308;2024-03-25T06:51:00;13.00;76.90
55135;DHT22;41031;44.750;11.308;2024-03-25T06:53:28;12.90;77.50
55135;DHT22;41031;44.750;11.308;2024-03-25T06:55:59;12.70;78.40
55135;DHT22;41031;44.750;11.308;2024-03-25T06:58:26;12.50;78.70
55135;DHT22;41031;44.750;11.308;2024-03-25T07:00:54;12.30;79.20
55135;DHT22;41031;44.750;11.308;2024-03-25T07:03:22;12.20;79.90
55135;DHT22;41031;44.750;11.308;2024-03-25T07:05:50;12.10;80.40
55135;DHT22;41031;44.750;11.308;2024-03-25T07:08:18;12.00;80.80
55135;DHT22;41031;44.750;11.308;2024-03-25T07:10:47;12.00;81.30
55135;DHT22;41031;44.750;11.308;2024-03-25T07:13:13;11.90;80.90
55135;DHT22;41031;44.750;11.308;2024-03-25T07:15:40;11.90;81.30
55135;DHT22;41031;44.750;11.308;2024-03-25T07:18:06;11.80;81.30
55135;DHT22;41031;44.750;11.308;2024-03-25T07:20:33;11.80;82.10
55135;DHT22;41031;44.750;11.308;2024-03-25T07:22:59;11.90;82.80
55135;DHT22;41031;44.750;11.308;2024-03-25T07:25:25;12.00;83.00
55135;DHT22;41031;44.750;11.308;2024-03-25T07:27:52;12.00;82.50
55135;DHT22;41031;44.750;11.308;2024-03-25T07:30:19;12.00;82.40
55135;DHT22;41031;44.750;11.308;2024-03-25T07:32:45;12.00;82.80
55135;DHT22;41031;44.750;11.308;2024-03-25T07:35:11;12.10;83.30
55135;DHT22;41031;44.750;11.308;2024-03-25T07:37:37;12.10;83.60
55135;DHT22;41031;44.750;11.308;2024-03-25T07:40:07;12.20;84.00
55135;DHT22;41031;44.750;11.308;2024-03-25T07:42:35;12.40;84.50
55135;DHT22;41031;44.750;11.308;2024-03-25T07:45:02;12.60;84.60
55135;DHT22;41031;44.750;11.308;2024-03-25T07:47:28;12.80;84.60
55135;DHT22;41031;44.750;11.308;2024-03-25T07:49:54;12.90;84.40
55135;DHT22;41031;44.750;11.308;2024-03-25T07:52:20;13.20;84.20
55135;DHT22;41031;44.750;11.308;2024-03-25T07:54:47;13.40;83.90
55135;DHT22;41031;44.750;11.308;2024-03-25T07:57:13;13.60;83.00
55135;DHT22;41031;44.750;11.308;2024-03-25T07:59:39;13.70;82.00
55135;DHT22;41031;44.750;11.308;2024-03-25T08:02:05;13.80;81.30
55135;DHT22;41031;44.750;11.308;2024-03-25T08:04:32;13.90;81.60
55135;DHT22;41031;44.750;11.308;2024-03-25T08:06:58;14.10;81.90
55135;DHT22;41031;44.750;11.308;2024-03-25T08:09:24;14.30;81.50
55135;DHT22;41031;44.750;11.308;2024-03-25T08:11:51;14.50;80.10
55135;DHT22;41031;44.750;11.308;2024-03-25T08:14:17;14.60;79.20
55135;DHT22;41031;44.750;11.308;2024-03-25T08:16:43;14.70;78.80
55135;DHT22;41031;44.750;11.308;2024-03-25T08:19:09;14.70;78.50
55135;DHT22;41031;44.750;11.308;2024-03-25T08:21:35;14.90;78.70
55135;DHT22;41031;44.750;11.308;2024-03-25T08:24:02;15.10;78.50
55135;DHT22;41031;44.750;11.308;2024-03-25T08:26:28;15.30;77.80
55135;DHT22;41031;44.750;11.308;2024-03-25T08:28:54;15.40;77.10
55135;DHT22;41031;44.750;11.308;2024-03-25T08:31:20;15.60;75.90
55135;DHT22;41031;44.750;11.308;2024-03-25T08:33:46;15.70;75.50
55135;DHT22;41031;44.750;11.308;2024-03-25T08:36:12;15.80;74.50
55135;DHT22;41031;44.750;11.308;2024-03-25T08:38:38;15.90;74.50
55135;DHT22;41031;44.750;11.308;2024-03-25T08:41:06;15.90;74.60
55135;DHT22;41031;44.750;11.308;2024-03-25T08:43:33;16.10;74.30
55135;DHT22;41031;44.750;11.308;2024-03-25T08:45:59;16.20;73.50
55135;DHT22;41031;44.750;11.308;2024-03-25T08:48:25;16.40;72.30
55135;DHT22;41031;44.750;11.308;2024-03-25T08:50:51;16.50;72.10
55135;DHT22;41031;44.750;11.308;2024-03-25T08:53:17;16.70;71.70
55135;DHT22;41031;44.750;11.308;2024-03-25T08:55:47;16.80;71.80
55135;DHT22;41031;44.750;11.308;2024-03-25T08:58:14;16.90;71.60
55135;DHT22;41031;44.750;11.308;2024-03-25T09:00:41;17.10;71.50
55135;DHT22;41031;44.750;11.308;2024-03-25T09:03:07;17.20;70.50
55135;DHT22;41031;44.750;11.308;2024-03-25T09:05:34;17.40;69.20
55135;DHT22;41031;44.750;11.308;2024-03-25T09:08:01;17.50;68.40
55135;DHT22;41031;44.750;11.308;2024-03-25T09:10:29;17.50;68.40
55135;DHT22;41031;44.750;11.308;2024-03-25T09:13:13;17.60;66.90
55135;DHT22;41031;44.750;11.308;2024-03-25T09:15:39;17.70;65.00
55135;DHT22;41031;44.750;11.308;2024-03-25T09:18:05;17.60;63.90
55135;DHT22;41031;44.750;11.308;2024-03-25T09:20:32;17.60;65.20
55135;DHT22;41031;44.750;11.308;2024-03-25T09:22:58;17.60;65.60
55135;DHT22;41031;44.750;11.308;2024-03-25T09:25:24;17.70;65.30
55135;DHT22;41031;44.750;11.308;2024-03-25T09:27:51;17.70;64.80
55135;DHT22;41031;44.750;11.308;2024-03-25T09:30:17;17.80;64.60
55135;DHT22;41031;44.750;11.308;2024-03-25T09:32:46;17.90;64.20
55135;DHT22;41031;44.750;11.308;2024-03-25T09:35:13;18.00;61.90
55135;DHT22;41031;44.750;11.308;2024-03-25T09:37:41;17.90;60.30
55135;DHT22;41031;44.750;11.308;2024-03-25T09:40:08;17.90;61.70
55135;DHT22;41031;44.750;11.308;2024-03-25T09:42:48;17.90;62.70
55135;DHT22;41031;44.750;11.308;2024-03-25T09:45:18;18.00;62.40
55135;DHT22;41031;44.750;11.308;2024-03-25T09:48:21;18.00;60.80
55135;DHT22;41031;44.750;11.308;2024-03-25T09:50:49;18.10;61.40
55135;DHT22;41031;44.750;11.308;2024-03-25T09:53:16;18.10;60.00
55135;DHT22;41031;44.750;11.308;2024-03-25T09:55:42;18.20;60.80
55135;DHT22;41031;44.750;11.308;2024-03-25T09:58:09;18.30;60.50
55135;DHT22;41031;44.750;11.308;2024-03-25T10:00:36;18.40;59.30
55135;DHT22;41031;44.750;11.308;2024-03-25T10:03:02;18.40;59.40
55135;DHT22;41031;44.750;11.308;2024-03-25T10:05:28;18.40;60.10
55135;DHT22;41031;44.750;11.308;2024-03-25T10:07:55;18.50;59.60
55135;DHT22;41031;44.750;11.308;2024-03-25T10:10:21;18.50;59.80
55135;DHT22;41031;44.750;11.308;2024-03-25T10:12:47;18.60;59.90
55135;DHT22;41031;44.750;11.308;2024-03-25T10:15:17;18.70;60.60
55135;DHT22;41031;44.750;11.308;2024-03-25T10:17:44;18.80;60.70
55135;DHT22;41031;44.750;11.308;2024-03-25T10:20:14;18.80;59.90
55135;DHT22;41031;44.750;11.308;2024-03-25T10:22:41;18.80;59.80
55135;DHT22;41031;44.750;11.308;2024-03-25T10:25:18;18.80;59.50
55135;DHT22;41031;44.750;11.308;2024-03-25T10:28:01;18.80;59.20
55135;DHT22;41031;44.750;11.308;2024-03-25T10:30:28;18.80;59.80
55135;DHT22;41031;44.750;11.308;2024-03-25T10:33:05;18.80;60.00
55135;DHT22;41031;44.750;11.308;2024-03-25T10:35:36;18.90;60.90
55135;DHT22;41031;44.750;11.308;2024-03-25T10:38:04;18.90;61.50
55135;DHT22;41031;44.750;11.308;2024-03-25T10:40:33;19.00;61.90
55135;DHT22;41031;44.750;11.308;2024-03-25T10:43:05;19.00;61.10
55135;DHT22;41031;44.750;11.308;2024-03-25T10:45:47;19.10;60.80
55135;DHT22;41031;44.750;11.308;2024-03-25T10:50:46;19.20;59.00
55135;DHT22;41031;44.750;11.308;2024-03-25T10:53:15;19.20;59.20
55135;DHT22;41031;44.750;11.308;2024-03-25T10:55:45;19.30;59.00
55135;DHT22;41031;44.750;11.308;2024-03-25T10:58:16;19.40;58.60
55135;DHT22;41031;44.750;11.308;2024-03-25T11:00:43;19.50;58.50
55135;DHT22;41031;44.750;11.308;2024-03-25T11:03:11;19.50;57.50
55135;DHT22;41031;44.750;11.308;2024-03-25T11:05:38;19.60;55.50
55135;DHT22;41031;44.750;11.308;2024-03-25T11:08:16;19.60;56.50
55135;DHT22;41031;44.750;11.308;2024-03-25T11:10:46;19.70;57.70
55135;DHT22;41031;44.750;11.308;2024-03-25T11:13:14;19.70;57.60
55135;DHT22;41031;44.750;11.308;2024-03-25T11:15:41;19.80;56.60
55135;DHT22;41031;44.750;11.308;2024-03-25T11:18:15;19.80;56.50
55135;DHT22;41031;44.750;11.308;2024-03-25T11:20:43;19.90;56.40
55135;DHT22;41031;44.750;11.308;2024-03-25T11:23:13;19.90;56.10
55135;DHT22;41031;44.750;11.308;2024-03-25T11:25:40;19.90;55.60
55135;DHT22;41031;44.750;11.308;2024-03-25T11:28:08;19.80;55.60
55135;DHT22;41031;44.750;11.308;2024-03-25T11:30:37;19.90;56.00
55135;DHT22;41031;44.750;11.308;2024-03-25T11:33:04;19.90;56.10
55135;DHT22;41031;44.750;11.308;2024-03-25T11:35:37;20.00;55.10
55135;DHT22;41031;44.750;11.308;2024-03-25T11:38:03;20.00;54.90
55135;DHT22;41031;44.750;11.308;2024-03-25T11:40:30;20.10;55.70
55135;DHT22;41031;44.750;11.308;2024-03-25T11:42:56;20.30;55.30
55135;DHT22;41031;44.750;11.308;2024-03-25T11:49:15;20.40;55.00
55135;DHT22;41031;44.750;11.308;2024-03-25T11:51:44;20.40;54.00
55135;DHT22;41031;44.750;11.308;2024-03-25T11:54:13;20.40;53.30
55135;DHT22;41031;44.750;11.308;2024-03-25T11:56:40;20.40;53.90
55135;DHT22;41031;44.750;11.308;2024-03-25T11:59:07;20.40;53.70
55135;DHT22;41031;44.750;11.308;2024-03-25T12:01:34;20.40;52.80
55135;DHT22;41031;44.750;11.308;2024-03-25T12:04:12;20.50;52.80
55135;DHT22;41031;44.750;11.308;2024-03-25T12:06:38;20.40;52.60
55135;DHT22;41031;44.750;11.308;2024-03-25T12:09:05;20.40;51.90
55135;DHT22;41031;44.750;11.308;2024-03-25T12:11:49;20.50;52.10
55135;DHT22;41031;44.750;11.308;2024-03-25T12:14:16;20.60;52.30
55135;DHT22;41031;44.750;11.308;2024-03-25T12:16:42;20.70;52.60
55135;DHT22;41031;44.750;11.308;2024-03-25T12:19:09;20.70;52.00
55135;DHT22;41031;44.750;11.308;2024-03-25T12:21:36;20.70;51.50
55135;DHT22;41031;44.750;11.308;2024-03-25T12:24:03;20.80;50.50
55135;DHT22;41031;44.750;11.308;2024-03-25T12:26:31;20.60;50.50
55135;DHT22;41031;44.750;11.308;2024-03-25T12:28:58;20.50;50.10
55135;DHT22;41031;44.750;11.308;2024-03-25T12:31:24;20.30;50.60
55135;DHT22;41031;44.750;11.308;2024-03-25T12:33:53;20.20;52.10
55135;DHT22;41031;44.750;11.308;2024-03-25T12:36:20;20.30;52.50
55135;DHT22;41031;44.750;11.308;2024-03-25T12:38:55;20.40;51.80
55135;DHT22;41031;44.750;11.308;2024-03-25T12:41:22;20.40;51.70
55135;DHT22;41031;44.750;11.308;2024-03-25T12:43:50;20.50;50.80
55135;DHT22;41031;44.750;11.308;2024-03-25T12:46:17;20.60;49.50
55135;DHT22;41031;44.750;11.308;2024-03-25T12:48:43;20.50;48.60
55135;DHT22;41031;44.750;11.308;2024-03-25T12:51:13;20.40;49.20
55135;DHT22;41031;44.750;11.308;2024-03-25T12:53:40;20.30;48.40
55135;DHT22;41031;44.750;11.308;2024-03-25T12:56:06;20.30;49.00
55135;DHT22;41031;44.750;11.308;2024-03-25T12:58:34;20.20;49.30
55135;DHT22;41031;44.750;11.308;2024-03-25T13:01:01;20.10;49.00
55135;DHT22;41031;44.750;11.308;2024-03-25T13:03:28;19.90;49.20
55135;DHT22;41031;44.750;11.308;2024-03-25T13:05:55;19.80;50.30
55135;DHT22;41031;44.750;11.308;2024-03-25T13:08:23;19.70;50.90
55135;DHT22;41031;44.750;11.308;2024-03-25T13:10:49;19.60;50.80
55135;DHT22;41031;44.750;11.308;2024-03-25T13:13:15;19.50;50.70
55135;DHT22;41031;44.750;11.308;2024-03-25T13:15:42;19.50;50.20
55135;DHT22;41031;44.750;11.308;2024-03-25T13:18:09;19.40;48.80
55135;DHT22;41031;44.750;11.308;2024-03-25T13:20:37;19.30;48.90
55135;DHT22;41031;44.750;11.308;2024-03-25T13:23:03;19.30;49.40
55135;DHT22;41031;44.750;11.308;2024-03-25T13:25:29;19.30;49.90
55135;DHT22;41031;44.750;11.308;2024-03-25T13:27:55;19.40;49.80
55135;DHT22;41031;44.750;11.308;2024-03-25T13:30:22;19.40;49.90
55135;DHT22;41031;44.750;11.308;2024-03-25T13:35:49;19.50;50.70
55135;DHT22;41031;44.750;11.308;2024-03-25T13:38:15;19.60;50.30
55135;DHT22;41031;44.750;11.308;2024-03-25T13:40:41;19.60;50.40
55135;DHT22;41031;44.750;11.308;2024-03-25T13:43:08;19.70;50.60
55135;DHT22;41031;44.750;11.308;2024-03-25T13:45:35;19.70;51.10
55135;DHT22;41031;44.750;11.308;2024-03-25T13:48:01;19.70;49.30
55135;DHT22;41031;44.750;11.308;2024-03-25T13:50:27;19.70;51.40
55135;DHT22;41031;44.750;11.308;2024-03-25T13:52:53;19.60;52.20
55135;DHT22;41031;44.750;11.308;2024-03-25T13:55:19;19.70;51.20
55135;DHT22;41031;44.750;11.308;2024-03-25T13:57:45;19.80;50.00
55135;DHT22;41031;44.750;11.308;2024-03-25T14:00:12;19.80;50.00
55135;DHT22;41031;44.750;11.308;2024-03-25T14:02:39;19.90;49.80
55135;DHT22;41031;44.750;11.308;2024-03-25T14:05:05;20.00;50.00
55135;DHT22;41031;44.750;11.308;2024-03-25T14:07:31;20.10;49.80
55135;DHT22;41031;44.750;11.308;2024-03-25T14:09:58;20.20;48.10
55135;DHT22;41031;44.750;11.308;2024-03-25T14:12:25;20.20;46.30
55135;DHT22;41031;44.750;11.308;2024-03-25T14:14:51;20.20;46.40
55135;DHT22;41031;44.750;11.308;2024-03-25T14:17:17;20.20;48.10
55135;DHT22;41031;44.750;11.308;2024-03-25T14:19:43;20.20;48.90
55135;DHT22;41031;44.750;11.308;2024-03-25T14:22:09;20.10;49.20
55135;DHT22;41031;44.750;11.308;2024-03-25T14:24:35;20.00;50.10
55135;DHT22;41031;44.750;11.308;2024-03-25T14:27:02;19.90;49.90
55135;DHT22;41031;44.750;11.308;2024-03-25T14:29:28;19.70;49.60
55135;DHT22;41031;44.750;11.308;2024-03-25T14:31:54;19.60;49.80
55135;DHT22;41031;44.750;11.308;2024-03-25T14:34:20;19.40;50.50
55135;DHT22;41031;44.750;11.308;2024-03-25T14:36:46;19.40;51.30
55135;DHT22;41031;44.750;11.308;2024-03-25T14:39:12;19.30;52.10
55135;DHT22;41031;44.750;11.308;2024-03-25T14:41:40;19.20;52.30
55135;DHT22;41031;44.750;11.308;2024-03-25T14:44:06;19.10;52.30
55135;DHT22;41031;44.750;11.308;2024-03-25T14:46:32;19.00;52.20
55135;DHT22;41031;44.750;11.308;2024-03-25T14:48:58;18.90;53.70
55135;DHT22;41031;44.750;11.308;2024-03-25T14:51:25;18.90;54.40
55135;DHT22;41031;44.750;11.308;2024-03-25T14:53:51;18.80;54.70
55135;DHT22;41031;44.750;11.308;2024-03-25T14:56:17;18.80;55.70
55135;DHT22;41031;44.750;11.308;2024-03-25T14:58:43;18.70;55.80
55135;DHT22;41031;44.750;11.308;2024-03-25T15:01:10;18.60;56.00
55135;DHT22;41031;44.750;11.308;2024-03-25T15:03:37;18.60;56.10
55135;DHT22;41031;44.750;11.308;2024-03-25T15:06:03;18.60;55.80
55135;DHT22;41031;44.750;11.308;2024-03-25T15:08:31;18.50;55.10
55135;DHT22;41031;44.750;11.308;2024-03-25T15:10:58;18.40;55.20
55135;DHT22;41031;44.750;11.308;2024-03-25T15:13:24;18.40;55.30
55135;DHT22;41031;44.750;11.308;2024-03-25T15:15:50;18.30;55.40
55135;DHT22;41031;44.750;11.308;2024-03-25T15:18:16;18.30;55.80
55135;DHT22;41031;44.750;11.308;2024-03-25T15:20:43;18.20;56.10
55135;DHT22;41031;44.750;11.308;2024-03-25T15:23:09;18.20;55.90
55135;DHT22;41031;44.750;11.308;2024-03-25T15:25:35;18.10;56.30
55135;DHT22;41031;44.750;11.308;2024-03-25T15:28:01;18.10;56.50
55135;DHT22;41031;44.750;11.308;2024-03-25T15:30:28;18.10;56.70
55135;DHT22;41031;44.750;11.308;2024-03-25T15:32:54;18.10;57.60
55135;DHT22;41031;44.750;11.308;2024-03-25T15:35:21;18.00;56.50
55135;DHT22;41031;44.750;11.308;2024-03-25T15:37:47;17.90;56.90
55135;DHT22;41031;44.750;11.308;2024-03-25T15:40:13;17.90;57.10
55135;DHT22;41031;44.750;11.308;2024-03-25T15:42:43;17.80;57.40